sensor_id;sensor_type;location;lat;lon;timestamp;temperature;humidity
34815;DHT22;21030;53.912;15.214;2022-08-01T00:00:16;41.10;23.80
34815;DHT22;21030;53.912;15.214;2022-08-01T00:02:43;40.90;24.60
34815;DHT22;21030;53.912;15.214;2022-08-01T00:05:11;40.90;24.90
34815;DHT22;21030;53.912;15.214;2022-08-01T00:07:38;40.80;25.00
34815;DHT22;21030;53.912;15.214;2022-08-01T00:10:09;40.70;25.20
34815;DHT22;21030;53.912;15.214;2022-08-01T00:12:36;40.60;25.40
34815;DHT22;21030;53.912;15.214;2022-08-01T00:15:06;40.60;25.30
34815;DHT22;21030;53.912;15.214;2022-08-01T00:17:33;40.60;25.40
34815;DHT22;21030;53.912;15.214;2022-08-01T00:20:01;40.40;25.30
34815;DHT22;21030;53.912;15.214;2022-08-01T00:22:33;40.30;25.30
34815;DHT22;21030;53.912;15.214;2022-08-01T00:25:02;40.40;25.40
34815;DHT22;21030;53.912;15.214;2022-08-01T00:27:30;40.40;25.30
34815;DHT22;21030;53.912;15.214;2022-08-01T00:30:03;40.50;25.90
34815;DHT22;21030;53.912;15.214;2022-08-01T00:32:40;40.60;25.50
34815;DHT22;21030;53.912;15.214;2022-08-01T00:35:07;40.70;25.20
34815;DHT22;21030;53.912;15.214;2022-08-01T00:37:35;40.70;25.10
34815;DHT22;21030;53.912;15.214;2022-08-01T00:40:02;40.60;25.20
34815;DHT22;21030;53.912;15.214;2022-08-01T00:42:29;40.70;25.80
34815;DHT22;21030;53.912;15.214;2022-08-01T00:44:56;40.60;25.20
34815;DHT22;21030;53.912;15.214;2022-08-01T00:47:23;40.70;25.50
34815;DHT22;21030;53.912;15.214;2022-08-01T00:49:50;40.60;25.70
34815;DHT22;21030;53.912;15.214;2022-08-01T00:52:18;40.60;25.70
34815;DHT22;21030;53.912;15.214;2022-08-01T00:54:45;40.50;25.70
34815;DHT22;21030;53.912;15.214;2022-08-01T00:57:12;40.50;25.70
34815;DHT22;21030;53.912;15.214;2022-08-01T00:59:40;40.50;25.80
34815;DHT22;21030;53.912;15.214;2022-08-01T01:02:09;40.60;25.90
34815;DHT22;21030;53.912;15.214;2022-08-01T01:04:42;40.40;26.00
34815;DHT22;21030;53.912;15.214;2022-08-01T01:07:11;40.70;25.90
34815;DHT22;21030;53.912;15.214;2022-08-01T01:10:00;40.80;25.60
34815;DHT22;21030;53.912;15.214;2022-08-01T01:20:49;40.80;25.40
34815;DHT22;21030;53.912;15.214;2022-08-01T01:26:17;41.00;25.90
34815;DHT22;21030;53.912;15.214;2022-08-01T01:31:55;40.40;26.30
34815;DHT22;21030;53.912;15.214;2022-08-01T01:34:23;40.50;26.30
34815;DHT22;21030;53.912;15.214;2022-08-01T01:36:54;40.50;26.20
34815;DHT22;21030;53.912;15.214;2022-08-01T01:39:24;40.40;26.40
34815;DHT22;21030;53.912;15.214;2022-08-01T01:41:53;40.40;26.40
34815;DHT22;21030;53.912;15.214;2022-08-01T01:44:21;40.30;26.40
34815;DHT22;21030;53.912;15.214;2022-08-01T01:46:49;40.30;26.40
34815;DHT22;21030;53.912;15.214;2022-08-01T01:49:23;40.30;26.60
34815;DHT22;21030;53.912;15.214;2022-08-01T01:51:54;40.20;26.40
34815;DHT22;21030;53.912;15.214;2022-08-01T01:54:32;39.70;26.30
34815;DHT22;21030;53.912;15.214;2022-08-01T01:57:02;39.70;26.30
34815;DHT22;21030;53.912;15.214;2022-08-01T01:59:34;39.70;26.60
34815;DHT22;21030;53.912;15.214;2022-08-01T02:02:02;39.90;26.50
34815;DHT22;21030;53.912;15.214;2022-08-01T02:04:40;39.90;26.60
34815;DHT22;21030;53.912;15.214;2022-08-01T02:07:11;39.90;26.80
34815;DHT22;21030;53.912;15.214;2022-08-01T02:09:41;39.90;26.70
34815;DHT22;21030;53.912;15.214;2022-08-01T02:12:12;39.90;26.80
34815;DHT22;21030;53.912;15.214;2022-08-01T02:14:42;40.00;26.50
34815;DHT22;21030;53.912;15.214;2022-08-01T02:17:12;39.90;26.80
34815;DHT22;21030;53.912;15.214;2022-08-01T02:19:42;39.90;27.10
34815;DHT22;21030;53.912;15.214;2022-08-01T02:22:27;40.00;27.20
34815;DHT22;21030;53.912;15.214;2022-08-01T02:25:10;40.10;26.80
34815;DHT22;21030;53.912;15.214;2022-08-01T02:27:45;40.20;26.60
34815;DHT22;21030;53.912;15.214;2022-08-01T02:30:13;40.00;26.20
34815;DHT22;21030;53.912;15.214;2022-08-01T02:32:44;40.20;25.90
34815;DHT22;21030;53.912;15.214;2022-08-01T02:35:26;40.10;26.10
34815;DHT22;21030;53.912;15.214;2022-08-01T02:37:57;39.80;26.30
34815;DHT22;21030;53.912;15.214;2022-08-01T02:40:27;40.00;26.20
34815;DHT22;21030;53.912;15.214;2022-08-01T02:42:56;40.20;25.90
34815;DHT22;21030;53.912;15.214;2022-08-01T02:45:28;40.50;26.40
34815;DHT22;21030;53.912;15.214;2022-08-01T02:48:07;40.60;26.40
34815;DHT22;21030;53.912;15.214;2022-08-01T02:50:36;40.50;26.10
34815;DHT22;21030;53.912;15.214;2022-08-01T02:53:05;40.50;26.30
34815;DHT22;21030;53.912;15.214;2022-08-01T02:55:34;40.50;26.50
34815;DHT22;21030;53.912;15.214;2022-08-01T02:58:02;40.30;26.60
34815;DHT22;21030;53.912;15.214;2022-08-01T03:00:30;40.40;26.70
34815;DHT22;21030;53.912;15.214;2022-08-01T03:02:59;40.50;26.70
34815;DHT22;21030;53.912;15.214;2022-08-01T03:05:28;40.50;26.80
34815;DHT22;21030;53.912;15.214;2022-08-01T03:07:58;40.60;26.90
34815;DHT22;21030;53.912;15.214;2022-08-01T03:10:30;40.60;26.80
34815;DHT22;21030;53.912;15.214;2022-08-01T03:12:59;40.70;26.80
34815;DHT22;21030;53.912;15.214;2022-08-01T03:15:27;40.80;26.70
34815;DHT22;21030;53.912;15.214;2022-08-01T03:17:59;40.90;26.60
34815;DHT22;21030;53.912;15.214;2022-08-01T03:20:30;40.90;26.30
34815;DHT22;21030;53.912;15.214;2022-08-01T03:23:05;41.00;26.50
34815;DHT22;21030;53.912;15.214;2022-08-01T03:25:38;41.00;26.50
34815;DHT22;21030;53.912;15.214;2022-08-01T03:28:07;41.00;26.40
34815;DHT22;21030;53.912;15.214;2022-08-01T03:30:37;41.00;26.40
34815;DHT22;21030;53.912;15.214;2022-08-01T03:33:05;40.70;27.00
34815;DHT22;21030;53.912;15.214;2022-08-01T03:35:59;40.50;26.90
34815;DHT22;21030;53.912;15.214;2022-08-01T03:38:27;40.30;27.00
34815;DHT22;21030;53.912;15.214;2022-08-01T03:41:02;40.10;27.40
34815;DHT22;21030;53.912;15.214;2022-08-01T03:43:40;40.20;27.40
34815;DHT22;21030;53.912;15.214;2022-08-01T03:46:11;40.00;27.40
34815;DHT22;21030;53.912;15.214;2022-08-01T03:48:43;39.80;27.50
34815;DHT22;21030;53.912;15.214;2022-08-01T03:51:12;39.80;27.70
34815;DHT22;21030;53.912;15.214;2022-08-01T03:53:41;39.70;27.40
34815;DHT22;21030;53.912;15.214;2022-08-01T03:56:09;39.90;27.50
34815;DHT22;21030;53.912;15.214;2022-08-01T03:58:39;39.90;27.10
34815;DHT22;21030;53.912;15.214;2022-08-01T04:01:07;39.80;26.70
34815;DHT22;21030;53.912;15.214;2022-08-01T04:03:42;39.80;26.80
34815;DHT22;21030;53.912;15.214;2022-08-01T04:06:09;39.60;26.80
34815;DHT22;21030;53.912;15.214;2022-08-01T04:08:38;39.30;27.00
34815;DHT22;21030;53.912;15.214;2022-08-01T04:11:08;39.50;27.20
34815;DHT22;21030;53.912;15.214;2022-08-01T04:13:35;39.80;27.20
34815;DHT22;21030;53.912;15.214;2022-08-01T04:16:04;40.00;27.00
34815;DHT22;21030;53.912;15.214;2022-08-01T04:18:31;40.10;26.80
34815;DHT22;21030;53.912;15.214;2022-08-01T04:20:59;40.10;27.00
34815;DHT22;21030;53.912;15.214;2022-08-01T04:23:27;39.40;27.20
34815;DHT22;21030;53.912;15.214;2022-08-01T04:25:57;39.70;27.20
34815;DHT22;21030;53.912;15.214;2022-08-01T04:28:26;39.60;27.20
34815;DHT22;21030;53.912;15.214;2022-08-01T04:30:55;39.60;27.00
34815;DHT22;21030;53.912;15.214;2022-08-01T04:33:29;39.80;27.00
34815;DHT22;21030;53.912;15.214;2022-08-01T04:35:58;40.00;26.90
34815;DHT22;21030;53.912;15.214;2022-08-01T04:38:30;40.00;26.30
34815;DHT22;21030;53.912;15.214;2022-08-01T04:41:00;40.20;26.90
34815;DHT22;21030;53.912;15.214;2022-08-01T04:43:36;40.40;26.80
34815;DHT22;21030;53.912;15.214;2022-08-01T04:46:05;40.50;26.60
34815;DHT22;21030;53.912;15.214;2022-08-01T04:48:36;40.70;26.50
34815;DHT22;21030;53.912;15.214;2022-08-01T04:51:09;40.70;26.30
34815;DHT22;21030;53.912;15.214;2022-08-01T04:53:37;40.70;26.60
34815;DHT22;21030;53.912;15.214;2022-08-01T04:56:06;40.80;26.60
34815;DHT22;21030;53.912;15.214;2022-08-01T04:58:33;40.80;26.70
34815;DHT22;21030;53.912;15.214;2022-08-01T05:01:01;40.80;26.80
34815;DHT22;21030;53.912;15.214;2022-08-01T05:03:28;40.70;27.10
34815;DHT22;21030;53.912;15.214;2022-08-01T05:05:55;40.70;27.20
34815;DHT22;21030;53.912;15.214;2022-08-01T05:08:22;40.40;27.40
34815;DHT22;21030;53.912;15.214;2022-08-01T05:10:49;40.50;27.50
34815;DHT22;21030;53.912;15.214;2022-08-01T05:13:16;40.50;27.40
34815;DHT22;21030;53.912;15.214;2022-08-01T05:15:43;40.70;27.20
34815;DHT22;21030;53.912;15.214;2022-08-01T05:18:10;40.60;27.40
34815;DHT22;21030;53.912;15.214;2022-08-01T05:20:40;40.40;27.60
34815;DHT22;21030;53.912;15.214;2022-08-01T05:23:08;40.10;27.70
34815;DHT22;21030;53.912;15.214;2022-08-01T05:25:41;40.40;27.50
34815;DHT22;21030;53.912;15.214;2022-08-01T05:28:23;40.70;26.90
34815;DHT22;21030;53.912;15.214;2022-08-01T05:30:51;40.80;27.00
34815;DHT22;21030;53.912;15.214;2022-08-01T05:33:22;40.90;27.10
34815;DHT22;21030;53.912;15.214;2022-08-01T05:35:52;41.00;27.00
34815;DHT22;21030;53.912;15.214;2022-08-01T05:38:19;41.10;26.80
34815;DHT22;21030;53.912;15.214;2022-08-01T05:40:46;41.30;26.90
34815;DHT22;21030;53.912;15.214;2022-08-01T05:43:13;41.50;26.80
34815;DHT22;21030;53.912;15.214;2022-08-01T05:45:40;41.40;26.80
34815;DHT22;21030;53.912;15.214;2022-08-01T05:48:08;41.20;27.10
34815;DHT22;21030;53.912;15.214;2022-08-01T05:50:35;41.00;27.10
34815;DHT22;21030;53.912;15.214;2022-08-01T05:53:02;40.80;27.10
34815;DHT22;21030;53.912;15.214;2022-08-01T05:55:29;40.30;27.50
34815;DHT22;21030;53.912;15.214;2022-08-01T05:57:56;40.10;27.90
34815;DHT22;21030;53.912;15.214;2022-08-01T06:00:23;39.90;27.70
34815;DHT22;21030;53.912;15.214;2022-08-01T06:02:50;40.10;27.70
34815;DHT22;21030;53.912;15.214;2022-08-01T06:05:17;40.30;27.40
34815;DHT22;21030;53.912;15.214;2022-08-01T06:07:44;40.10;27.80
34815;DHT22;21030;53.912;15.214;2022-08-01T06:10:11;40.20;28.10
34815;DHT22;21030;53.912;15.214;2022-08-01T06:12:38;40.20;28.20
34815;DHT22;21030;53.912;15.214;2022-08-01T06:15:06;40.00;28.00
34815;DHT22;21030;53.912;15.214;2022-08-01T06:17:33;39.90;27.70
34815;DHT22;21030;53.912;15.214;2022-08-01T06:20:00;39.80;27.70
34815;DHT22;21030;53.912;15.214;2022-08-01T06:22:27;39.90;27.90
34815;DHT22;21030;53.912;15.214;2022-08-01T06:24:56;40.10;27.80
34815;DHT22;21030;53.912;15.214;2022-08-01T06:27:23;40.10;27.70
34815;DHT22;21030;53.912;15.214;2022-08-01T06:29:52;39.80;28.00
34815;DHT22;21030;53.912;15.214;2022-08-01T06:32:23;40.10;28.10
34815;DHT22;21030;53.912;15.214;2022-08-01T06:34:53;40.30;28.20
34815;DHT22;21030;53.912;15.214;2022-08-01T06:37:21;40.70;27.80
34815;DHT22;21030;53.912;15.214;2022-08-01T06:39:48;41.00;27.60
34815;DHT22;21030;53.912;15.214;2022-08-01T06:42:16;41.10;27.10
34815;DHT22;21030;53.912;15.214;2022-08-01T06:44:44;41.10;26.80
34815;DHT22;21030;53.912;15.214;2022-08-01T06:47:11;41.50;26.60
34815;DHT22;21030;53.912;15.214;2022-08-01T06:49:39;41.60;26.40
34815;DHT22;21030;53.912;15.214;2022-08-01T06:52:06;41.50;26.20
34815;DHT22;21030;53.912;15.214;2022-08-01T06:54:33;41.30;26.40
34815;DHT22;21030;53.912;15.214;2022-08-01T06:57:00;41.50;26.60
34815;DHT22;21030;53.912;15.214;2022-08-01T06:59:31;41.70;26.50
34815;DHT22;21030;53.912;15.214;2022-08-01T07:01:58;41.90;26.70
34815;DHT22;21030;53.912;15.214;2022-08-01T07:04:24;41.60;26.40
34815;DHT22;21030;53.912;15.214;2022-08-01T07:06:51;41.60;26.30
34815;DHT22;21030;53.912;15.214;2022-08-01T07:09:19;41.50;26.60
34815;DHT22;21030;53.912;15.214;2022-08-01T07:11:46;41.50;26.60
34815;DHT22;21030;53.912;15.214;2022-08-01T07:14:13;41.60;26.20
34815;DHT22;21030;53.912;15.214;2022-08-01T07:16:40;41.90;26.40
34815;DHT22;21030;53.912;15.214;2022-08-01T07:19:07;41.60;26.40
34815;DHT22;21030;53.912;15.214;2022-08-01T07:21:34;41.60;26.50
34815;DHT22;21030;53.912;15.214;2022-08-01T07:24:08;42.00;27.30
34815;DHT22;21030;53.912;15.214;2022-08-01T07:26:44;42.20;27.10
34815;DHT22;21030;53.912;15.214;2022-08-01T07:29:23;41.90;26.60
34815;DHT22;21030;53.912;15.214;2022-08-01T07:31:54;41.40;27.00
34815;DHT22;21030;53.912;15.214;2022-08-01T07:34:23;41.40;27.30
34815;DHT22;21030;53.912;15.214;2022-08-01T07:36:51;41.60;27.50
34815;DHT22;21030;53.912;15.214;2022-08-01T07:39:19;41.50;27.10
34815;DHT22;21030;53.912;15.214;2022-08-01T07:41:46;41.50;26.90
34815;DHT22;21030;53.912;15.214;2022-08-01T07:44:33;41.70;26.80
34815;DHT22;21030;53.912;15.214;2022-08-01T07:47:00;42.10;26.40
34815;DHT22;21030;53.912;15.214;2022-08-01T07:49:27;42.40;25.20
34815;DHT22;21030;53.912;15.214;2022-08-01T07:51:54;42.80;25.60
34815;DHT22;21030;53.912;15.214;2022-08-01T07:54:31;43.10;25.30
34815;DHT22;21030;53.912;15.214;2022-08-01T07:57:01;43.40;25.00
34815;DHT22;21030;53.912;15.214;2022-08-01T07:59:28;43.70;25.00
34815;DHT22;21030;53.912;15.214;2022-08-01T08:01:55;43.50;25.30
34815;DHT22;21030;53.912;15.214;2022-08-01T08:04:22;43.50;25.80
34815;DHT22;21030;53.912;15.214;2022-08-01T08:06:49;43.40;25.80
34815;DHT22;21030;53.912;15.214;2022-08-01T08:09:16;43.40;25.60
34815;DHT22;21030;53.912;15.214;2022-08-01T08:11:44;43.40;25.00
34815;DHT22;21030;53.912;15.214;2022-08-01T08:14:14;43.00;24.70
34815;DHT22;21030;53.912;15.214;2022-08-01T08:16:42;43.30;25.30
34815;DHT22;21030;53.912;15.214;2022-08-01T08:19:10;43.70;25.40
34815;DHT22;21030;53.912;15.214;2022-08-01T08:21:37;43.80;24.90
34815;DHT22;21030;53.912;15.214;2022-08-01T08:24:05;43.90;25.00
34815;DHT22;21030;53.912;15.214;2022-08-01T08:26:55;44.20;24.60
34815;DHT22;21030;53.912;15.214;2022-08-01T08:29:23;44.60;24.50
34815;DHT22;21030;53.912;15.214;2022-08-01T08:31:51;44.60;24.50
34815;DHT22;21030;53.912;15.214;2022-08-01T08:34:19;44.80;24.70
34815;DHT22;21030;53.912;15.214;2022-08-01T08:36:48;44.80;24.80
34815;DHT22;21030;53.912;15.214;2022-08-01T08:39:16;44.90;24.80
34815;DHT22;21030;53.912;15.214;2022-08-01T08:41:46;44.40;24.40
34815;DHT22;21030;53.912;15.214;2022-08-01T08:44:16;44.60;24.50
34815;DHT22;21030;53.912;15.214;2022-08-01T08:46:49;44.60;23.90
34815;DHT22;21030;53.912;15.214;2022-08-01T08:49:23;44.80;23.90
34815;DHT22;21030;53.912;15.214;2022-08-01T08:51:51;45.00;24.40
34815;DHT22;21030;53.912;15.214;2022-08-01T08:54:21;45.30;23.70
34815;DHT22;21030;53.912;15.214;2022-08-01T08:56:58;45.50;23.30
34815;DHT22;21030;53.912;15.214;2022-08-01T08:59:26;45.80;23.20
34815;DHT22;21030;53.912;15.214;2022-08-01T09:01:53;45.90;22.90
34815;DHT22;21030;53.912;15.214;2022-08-01T09:04:21;46.10;22.70
34815;DHT22;21030;53.912;15.214;2022-08-01T09:06:52;46.10;22.50
34815;DHT22;21030;53.912;15.214;2022-08-01T09:09:19;46.10;22.10
34815;DHT22;21030;53.912;15.214;2022-08-01T09:11:46;46.30;21.90
34815;DHT22;21030;53.912;15.214;2022-08-01T09:14:32;46.40;22.00
34815;DHT22;21030;53.912;15.214;2022-08-01T09:17:09;46.50;22.30
34815;DHT22;21030;53.912;15.214;2022-08-01T09:19:44;46.50;22.30
34815;DHT22;21030;53.912;15.214;2022-08-01T09:22:16;46.60;22.40
34815;DHT22;21030;53.912;15.214;2022-08-01T09:25:00;46.80;22.20
34815;DHT22;21030;53.912;15.214;2022-08-01T09:27:27;46.90;22.00
34815;DHT22;21030;53.912;15.214;2022-08-01T09:29:55;46.70;22.00
34815;DHT22;21030;53.912;15.214;2022-08-01T09:32:33;46.90;21.90
34815;DHT22;21030;53.912;15.214;2022-08-01T09:38:15;47.40;21.50
34815;DHT22;21030;53.912;15.214;2022-08-01T09:40:53;47.50;21.10
34815;DHT22;21030;53.912;15.214;2022-08-01T09:43:26;47.50;20.90
34815;DHT22;21030;53.912;15.214;2022-08-01T09:45:57;47.30;21.10
34815;DHT22;21030;53.912;15.214;2022-08-01T09:48:25;47.40;21.60
34815;DHT22;21030;53.912;15.214;2022-08-01T09:50:57;47.50;21.20
34815;DHT22;21030;53.912;15.214;2022-08-01T09:53:41;48.20;20.70
34815;DHT22;21030;53.912;15.214;2022-08-01T09:56:19;48.60;20.40
34815;DHT22;21030;53.912;15.214;2022-08-01T09:58:58;49.00;20.00
34815;DHT22;21030;53.912;15.214;2022-08-01T10:01:48;49.00;19.40
34815;DHT22;21030;53.912;15.214;2022-08-01T10:04:20;49.40;19.70
34815;DHT22;21030;53.912;15.214;2022-08-01T10:06:49;49.50;19.80
34815;DHT22;21030;53.912;15.214;2022-08-01T10:09:29;50.00;19.60
34815;DHT22;21030;53.912;15.214;2022-08-01T10:12:07;49.60;19.20
34815;DHT22;21030;53.912;15.214;2022-08-01T10:14:48;49.00;19.50
34815;DHT22;21030;53.912;15.214;2022-08-01T10:17:18;48.60;20.00
34815;DHT22;21030;53.912;15.214;2022-08-01T10:19:46;48.60;19.90
34815;DHT22;21030;53.912;15.214;2022-08-01T10:22:18;48.80;20.00
34815;DHT22;21030;53.912;15.214;2022-08-01T10:24:47;48.60;19.50
34815;DHT22;21030;53.912;15.214;2022-08-01T10:27:16;47.90;19.40
34815;DHT22;21030;53.912;15.214;2022-08-01T10:30:03;48.60;19.70
34815;DHT22;21030;53.912;15.214;2022-08-01T10:32:50;49.20;19.40
34815;DHT22;21030;53.912;15.214;2022-08-01T10:35:21;49.90;18.60
34815;DHT22;21030;53.912;15.214;2022-08-01T10:38:08;50.10;18.50
34815;DHT22;21030;53.912;15.214;2022-08-01T10:40:41;48.80;18.90
34815;DHT22;21030;53.912;15.214;2022-08-01T10:43:13;48.00;18.90
34815;DHT22;21030;53.912;15.214;2022-08-01T10:45:48;47.50;19.70
34815;DHT22;21030;53.912;15.214;2022-08-01T10:49:22;47.30;19.90
34815;DHT22;21030;53.912;15.214;2022-08-01T10:51:18;46.30;20.60
34815;DHT22;21030;53.912;15.214;2022-08-01T10:54:10;46.50;21.30
34815;DHT22;21030;53.912;15.214;2022-08-01T10:56:47;46.20;20.60
34815;DHT22;21030;53.912;15.214;2022-08-01T10:59:21;46.00;20.60
34815;DHT22;21030;53.912;15.214;2022-08-01T11:02:08;46.00;20.80
34815;DHT22;21030;53.912;15.214;2022-08-01T11:04:50;45.90;21.00
34815;DHT22;21030;53.912;15.214;2022-08-01T11:07:21;46.00;20.70
34815;DHT22;21030;53.912;15.214;2022-08-01T11:13:00;46.70;20.80
34815;DHT22;21030;53.912;15.214;2022-08-01T11:15:30;47.10;21.20
34815;DHT22;21030;53.912;15.214;2022-08-01T11:17:59;47.60;20.90
34815;DHT22;21030;53.912;15.214;2022-08-01T11:20:33;47.80;20.80
34815;DHT22;21030;53.912;15.214;2022-08-01T11:28:26;47.70;20.80
34815;DHT22;21030;53.912;15.214;2022-08-01T11:38:47;48.00;20.80
34815;DHT22;21030;53.912;15.214;2022-08-01T11:44:16;47.40;21.10
34815;DHT22;21030;53.912;15.214;2022-08-01T11:52:10;47.20;22.00
34815;DHT22;21030;53.912;15.214;2022-08-01T11:54:48;47.00;22.00
34815;DHT22;21030;53.912;15.214;2022-08-01T11:57:24;47.10;22.40
34815;DHT22;21030;53.912;15.214;2022-08-01T12:00:04;46.80;22.40
34815;DHT22;21030;53.912;15.214;2022-08-01T12:02:34;46.40;22.70
34815;DHT22;21030;53.912;15.214;2022-08-01T12:05:12;46.40;23.00
34815;DHT22;21030;53.912;15.214;2022-08-01T12:07:42;46.60;23.00
34815;DHT22;21030;53.912;15.214;2022-08-01T12:10:15;46.70;22.80
34815;DHT22;21030;53.912;15.214;2022-08-01T12:12:50;45.90;22.90
34815;DHT22;21030;53.912;15.214;2022-08-01T12:15:19;46.30;23.00
34815;DHT22;21030;53.912;15.214;2022-08-01T12:17:55;46.50;22.80
34815;DHT22;21030;53.912;15.214;2022-08-01T12:20:27;46.30;22.90
34815;DHT22;21030;53.912;15.214;2022-08-01T12:22:59;46.40;22.90
34815;DHT22;21030;53.912;15.214;2022-08-01T12:25:27;46.10;23.20
34815;DHT22;21030;53.912;15.214;2022-08-01T12:27:54;46.10;23.20
34815;DHT22;21030;53.912;15.214;2022-08-01T12:30:23;46.00;23.40
34815;DHT22;21030;53.912;15.214;2022-08-01T12:32:53;46.00;23.60
34815;DHT22;21030;53.912;15.214;2022-08-01T12:35:22;45.40;23.70
34815;DHT22;21030;53.912;15.214;2022-08-01T12:37:52;45.40;23.80
34815;DHT22;21030;53.912;15.214;2022-08-01T12:40:21;45.60;23.90
34815;DHT22;21030;53.912;15.214;2022-08-01T12:42:51;45.40;24.20
34815;DHT22;21030;53.912;15.214;2022-08-01T12:45:21;45.40;24.20
34815;DHT22;21030;53.912;15.214;2022-08-01T12:47:51;45.60;24.00
34815;DHT22;21030;53.912;15.214;2022-08-01T12:50:21;45.80;23.90
34815;DHT22;21030;53.912;15.214;2022-08-01T12:52:49;46.00;23.70
34815;DHT22;21030;53.912;15.214;2022-08-01T12:55:21;45.70;23.80
34815;DHT22;21030;53.912;15.214;2022-08-01T12:57:50;46.00;23.60
34815;DHT22;21030;53.912;15.214;2022-08-01T13:00:23;45.90;23.50
34815;DHT22;21030;53.912;15.214;2022-08-01T13:03:04;45.90;23.40
34815;DHT22;21030;53.912;15.214;2022-08-01T13:08:16;46.50;23.50
34815;DHT22;21030;53.912;15.214;2022-08-01T13:10:43;46.80;23.20
34815;DHT22;21030;53.912;15.214;2022-08-01T13:13:12;47.10;22.90
34815;DHT22;21030;53.912;15.214;2022-08-01T13:16:03;47.30;22.80
34815;DHT22;21030;53.912;15.214;2022-08-01T13:18:33;47.10;22.70
34815;DHT22;21030;53.912;15.214;2022-08-01T13:21:20;47.10;22.80
34815;DHT22;21030;53.912;15.214;2022-08-01T13:24:08;47.20;22.90
34815;DHT22;21030;53.912;15.214;2022-08-01T13:26:48;47.30;22.70
34815;DHT22;21030;53.912;15.214;2022-08-01T13:29:40;47.10;22.80
34815;DHT22;21030;53.912;15.214;2022-08-01T13:32:18;47.10;22.90
34815;DHT22;21030;53.912;15.214;2022-08-01T13:35:06;47.20;22.90
34815;DHT22;21030;53.912;15.214;2022-08-01T13:37:35;46.90;22.80
34815;DHT22;21030;53.912;15.214;2022-08-01T13:40:06;46.90;23.00
34815;DHT22;21030;53.912;15.214;2022-08-01T13:42:33;46.90;23.20
34815;DHT22;21030;53.912;15.214;2022-08-01T13:45:01;46.70;23.00
34815;DHT22;21030;53.912;15.214;2022-08-01T13:47:29;46.70;23.10
34815;DHT22;21030;53.912;15.214;2022-08-01T13:49:59;46.50;23.10
34815;DHT22;21030;53.912;15.214;2022-08-01T13:52:29;46.10;23.10
34815;DHT22;21030;53.912;15.214;2022-08-01T13:54:58;45.90;23.60
34815;DHT22;21030;53.912;15.214;2022-08-01T13:57:25;45.80;23.70
34815;DHT22;21030;53.912;15.214;2022-08-01T14:00:05;45.60;23.60
34815;DHT22;21030;53.912;15.214;2022-08-01T14:02:32;45.70;23.60
34815;DHT22;21030;53.912;15.214;2022-08-01T14:05:00;45.60;23.60
34815;DHT22;21030;53.912;15.214;2022-08-01T14:07:28;45.60;23.80
34815;DHT22;21030;53.912;15.214;2022-08-01T14:09:57;45.20;23.70
34815;DHT22;21030;53.912;15.214;2022-08-01T14:12:44;45.50;23.70
34815;DHT22;21030;53.912;15.214;2022-08-01T14:15:11;45.00;23.70
34815;DHT22;21030;53.912;15.214;2022-08-01T14:17:39;45.10;23.90
34815;DHT22;21030;53.912;15.214;2022-08-01T14:20:13;45.20;23.90
34815;DHT22;21030;53.912;15.214;2022-08-01T14:22:40;45.20;23.70
34815;DHT22;21030;53.912;15.214;2022-08-01T14:25:08;45.20;23.80
34815;DHT22;21030;53.912;15.214;2022-08-01T14:27:35;45.10;23.80
34815;DHT22;21030;53.912;15.214;2022-08-01T14:30:04;44.70;23.90
34815;DHT22;21030;53.912;15.214;2022-08-01T14:32:31;44.90;24.30
34815;DHT22;21030;53.912;15.214;2022-08-01T14:35:01;45.20;24.20
34815;DHT22;21030;53.912;15.214;2022-08-01T14:37:29;45.50;24.20
34815;DHT22;21030;53.912;15.214;2022-08-01T14:40:04;45.30;24.50
34815;DHT22;21030;53.912;15.214;2022-08-01T14:42:36;45.20;24.50
34815;DHT22;21030;53.912;15.214;2022-08-01T14:45:06;45.20;24.50
34815;DHT22;21030;53.912;15.214;2022-08-01T14:47:36;45.40;24.70
34815;DHT22;21030;53.912;15.214;2022-08-01T14:50:05;45.70;24.60
34815;DHT22;21030;53.912;15.214;2022-08-01T14:52:33;45.90;24.80
34815;DHT22;21030;53.912;15.214;2022-08-01T14:55:01;46.10;24.10
34815;DHT22;21030;53.912;15.214;2022-08-01T14:57:28;46.00;23.90
34815;DHT22;21030;53.912;15.214;2022-08-01T14:59:55;46.10;23.90
34815;DHT22;21030;53.912;15.214;2022-08-01T15:02:22;46.20;23.90
34815;DHT22;21030;53.912;15.214;2022-08-01T15:04:49;46.10;23.70
34815;DHT22;21030;53.912;15.214;2022-08-01T15:07:17;45.90;23.70
34815;DHT22;21030;53.912;15.214;2022-08-01T15:09:45;45.60;24.10
34815;DHT22;21030;53.912;15.214;2022-08-01T15:12:12;45.30;24.10
34815;DHT22;21030;53.912;15.214;2022-08-01T15:14:39;45.20;24.20
34815;DHT22;21030;53.912;15.214;2022-08-01T15:17:19;45.30;24.50
34815;DHT22;21030;53.912;15.214;2022-08-01T15:19:49;45.10;24.50
34815;DHT22;21030;53.912;15.214;2022-08-01T15:22:18;44.70;24.60
34815;DHT22;21030;53.912;15.214;2022-08-01T15:24:46;44.80;24.90
34815;DHT22;21030;53.912;15.214;2022-08-01T15:27:13;44.50;24.90
34815;DHT22;21030;53.912;15.214;2022-08-01T15:29:40;44.50;24.90
34815;DHT22;21030;53.912;15.214;2022-08-01T15:32:08;44.60;25.10
34815;DHT22;21030;53.912;15.214;2022-08-01T15:34:37;44.30;25.10
34815;DHT22;21030;53.912;15.214;2022-08-01T15:37:04;43.80;25.60
34815;DHT22;21030;53.912;15.214;2022-08-01T15:39:33;43.70;25.60
34815;DHT22;21030;53.912;15.214;2022-08-01T15:42:03;43.70;25.60
34815;DHT22;21030;53.912;15.214;2022-08-01T15:44:31;43.00;25.80
34815;DHT22;21030;53.912;15.214;2022-08-01T15:46:59;42.80;26.20
34815;DHT22;21030;53.912;15.214;2022-08-01T15:49:51;42.80;26.30
34815;DHT22;21030;53.912;15.214;2022-08-01T15:52:42;42.80;26.40
34815;DHT22;21030;53.912;15.214;2022-08-01T15:55:36;42.90;26.50
34815;DHT22;21030;53.912;15.214;2022-08-01T15:58:29;42.80;26.40
34815;DHT22;21030;53.912;15.214;2022-08-01T16:01:20;42.80;26.40
34815;DHT22;21030;53.912;15.214;2022-08-01T16:04:11;42.70;26.70
34815;DHT22;21030;53.912;15.214;2022-08-01T16:06:38;42.50;26.60
34815;DHT22;21030;53.912;15.214;2022-08-01T16:09:05;42.60;26.50
34815;DHT22;21030;53.912;15.214;2022-08-01T16:11:32;42.70;26.40
34815;DHT22;21030;53.912;15.214;2022-08-01T16:14:02;42.40;26.60
34815;DHT22;21030;53.912;15.214;2022-08-01T16:16:29;42.60;26.60
34815;DHT22;21030;53.912;15.214;2022-08-01T16:18:56;42.80;26.70
34815;DHT22;21030;53.912;15.214;2022-08-01T16:21:23;43.00;26.40
34815;DHT22;21030;53.912;15.214;2022-08-01T16:23:51;42.80;26.50